Time;durP1;ratioP1;P1;durP2;ratioP2;P2;SDS_P1;SDS_P2;PMS_P1;PMS_P2;Temp;Humidity;BMP_temperature;BMP_pressure;BME280_temperature;BME280_humidity;BME280_pressure;Samples;Min_cycle;Max_cycle;Signal;HPM_P1;HPM_P2
2021/09/29 00:00:07;;;;;;;14.68;7.72;;;11.60;99.90;;;;;;5041701;28;21025;-68
2021/09/29 00:02:33;;;;;;;13.43;7.72;;;11.60;99.90;;;;;;5023553;28;20056;-68
2021/09/29 00:04:58;;;;;;;20.30;8.40;;;11.60;99.90;;;;;;5042248;28;20052;-68
2021/09/29 00:07:24;;;;;;;13.52;8.13;;;11.60;99.90;;;;;;5024167;28;20033;-68
2021/09/29 00:09:49;;;;;;;14.60;7.65;;;11.50;99.90;;;;;;5024144;28;20043;-68
2021/09/29 00:12:15;;;;;;;13.68;7.85;;;11.50;99.90;;;;;;5041677;28;20037;-68
2021/09/29 00:14:42;;;;;;;11.98;8.38;;;11.50;99.90;;;;;;5040722;28;20103;-68
2021/09/29 00:17:07;;;;;;;18.52;8.30;;;11.40;99.90;;;;;;5042211;28;20032;-68
2021/09/29 00:19:33;;;;;;;13.57;9.05;;;11.50;99.90;;;;;;5022046;28;20055;-69
2021/09/29 00:21:59;;;;;;;12.35;8.27;;;11.40;99.90;;;;;;5023302;28;20048;-68
2021/09/29 00:24:24;;;;;;;15.93;7.50;;;11.30;99.90;;;;;;5024192;28;20542;-68
2021/09/29 00:26:50;;;;;;;14.70;9.27;;;11.30;99.90;;;;;;5026442;28;20037;-68
2021/09/29 00:29:15;;;;;;;20.42;8.85;;;11.30;99.90;;;;;;5024669;28;20585;-68
2021/09/29 00:31:41;;;;;;;11.55;7.82;;;11.30;99.90;;;;;;5040789;28;20895;-68
2021/09/29 00:34:09;;;;;;;15.85;8.60;;;11.30;99.90;;;;;;5024756;28;20041;-68
2021/09/29 00:36:37;;;;;;;16.55;8.77;;;11.20;99.90;;;;;;5021807;28;20041;-68
2021/09/29 00:39:03;;;;;;;15.10;8.95;;;11.20;99.90;;;;;;5023139;28;20775;-68
2021/09/29 00:41:29;;;;;;;16.95;8.02;;;11.20;99.90;;;;;;5042566;28;20029;-68
2021/09/29 00:43:55;;;;;;;17.35;9.05;;;11.20;99.90;;;;;;5041790;28;20052;-68
2021/09/29 00:46:20;;;;;;;16.83;8.90;;;11.20;99.90;;;;;;5022222;28;20033;-68
2021/09/29 00:48:46;;;;;;;17.58;8.80;;;11.20;99.90;;;;;;5025149;28;20041;-68
2021/09/29 00:51:12;;;;;;;18.35;8.60;;;11.20;99.90;;;;;;5040668;28;20515;-69
2021/09/29 00:53:39;;;;;;;13.30;8.07;;;11.30;99.90;;;;;;5040330;28;20398;-68
2021/09/29 00:56:05;;;;;;;12.73;8.40;;;11.30;99.90;;;;;;5020827;28;20056;-68
2021/09/29 00:58:32;;;;;;;14.95;7.38;;;11.30;99.90;;;;;;5042382;28;20045;-68
2021/09/29 01:00:59;;;;;;;13.85;8.43;;;11.30;99.90;;;;;;5038565;28;20608;-68
2021/09/29 01:03:24;;;;;;;12.23;7.10;;;11.40;99.90;;;;;;5023639;28;20041;-68
2021/09/29 01:05:53;;;;;;;14.25;6.55;;;11.40;99.90;;;;;;5023387;28;20510;-68
2021/09/29 01:08:25;;;;;;;11.13;5.68;;;11.40;99.90;;;;;;5041561;28;20069;-68
2021/09/29 01:11:01;;;;;;;10.80;6.03;;;11.40;99.90;;;;;;5023478;28;20036;-68
2021/09/29 01:13:50;;;;;;;14.43;5.38;;;11.50;99.90;;;;;;5038783;28;20449;-68
2021/09/29 01:16:16;;;;;;;13.45;5.10;;;11.50;99.90;;;;;;5021789;28;20055;-68
2021/09/29 01:18:46;;;;;;;10.57;4.97;;;11.50;99.90;;;;;;5040041;28;20064;-68
2021/09/29 01:21:13;;;;;;;10.05;4.85;;;11.60;99.90;;;;;;5039933;28;20060;-68
2021/09/29 01:24:11;;;;;;;7.82;4.65;;;11.60;99.90;;;;;;5022918;28;20107;-68
2021/09/29 01:26:39;;;;;;;13.57;5.00;;;11.70;99.90;;;;;;5038338;28;20051;-68
2021/09/29 01:29:09;;;;;;;9.00;4.38;;;11.70;99.90;;;;;;5022498;28;20045;-68
2021/09/29 01:31:36;;;;;;;11.88;4.60;;;11.70;99.90;;;;;;5025841;28;20051;-68
2021/09/29 01:34:04;;;;;;;9.75;4.20;;;11.70;99.90;;;;;;5024529;28;20051;-68
2021/09/29 01:36:30;;;;;;;12.20;4.18;;;11.60;99.90;;;;;;5027224;28;20049;-68
2021/09/29 01:38:58;;;;;;;10.77;5.35;;;11.60;99.90;;;;;;5022865;28;20048;-68
2021/09/29 01:41:27;;;;;;;10.57;3.85;;;11.70;99.90;;;;;;5044338;28;20045;-68
2021/09/29 01:43:54;;;;;;;14.38;4.18;;;11.70;99.90;;;;;;5040562;28;20136;-68
2021/09/29 01:46:23;;;;;;;8.07;3.95;;;11.70;99.90;;;;;;5039470;28;22399;-68
2021/09/29 01:49:11;;;;;;;9.65;3.92;;;11.70;99.90;;;;;;5021870;28;20524;-68
2021/09/29 01:51:40;;;;;;;10.65;5.25;;;11.70;99.90;;;;;;5041214;28;20519;-68
2021/09/29 01:54:07;;;;;;;10.55;4.00;;;11.70;99.90;;;;;;5022150;28;20045;-68
2021/09/29 01:56:33;;;;;;;9.77;3.72;;;11.60;99.90;;;;;;5038043;28;20052;-68
2021/09/29 01:59:02;;;;;;;8.00;4.10;;;11.60;99.90;;;;;;5022342;28;20114;-68
2021/09/29 02:01:28;;;;;;;13.70;5.97;;;11.60;99.90;;;;;;5039725;28;20052;-68
2021/09/29 02:03:54;;;;;;;12.57;5.40;;;11.60;99.90;;;;;;5022570;28;20037;-68
2021/09/29 02:06:19;;;;;;;10.25;5.10;;;11.60;99.90;;;;;;5023317;28;20051;-68
2021/09/29 02:08:45;;;;;;;7.47;4.97;;;11.60;99.90;;;;;;5040398;28;20493;-68
2021/09/29 02:11:11;;;;;;;8.55;4.85;;;11.50;99.90;;;;;;5038252;28;20060;-68
2021/09/29 02:13:37;;;;;;;10.02;5.00;;;11.50;99.90;;;;;;5024787;28;20057;-68
2021/09/29 02:16:02;;;;;;;12.27;6.65;;;11.50;99.90;;;;;;5039647;28;20491;-68
2021/09/29 02:18:28;;;;;;;14.90;6.28;;;11.50;99.90;;;;;;5026056;28;20044;-68
2021/09/29 02:20:54;;;;;;;11.40;5.60;;;11.50;99.90;;;;;;5022204;28;20049;-68
2021/09/29 02:23:21;;;;;;;12.27;5.60;;;11.50;99.90;;;;;;5024487;28;20045;-68
2021/09/29 02:25:47;;;;;;;10.65;4.72;;;11.40;99.90;;;;;;5039309;28;20041;-68
2021/09/29 02:28:13;;;;;;;14.02;5.38;;;11.40;99.90;;;;;;5027093;28;20068;-68
2021/09/29 02:30:39;;;;;;;8.88;4.35;;;11.40;99.90;;;;;;5025839;28;20126;-68
2021/09/29 02:33:05;;;;;;;13.43;4.57;;;11.50;99.90;;;;;;5043701;28;20060;-68
2021/09/29 02:35:30;;;;;;;10.30;3.88;;;11.40;99.90;;;;;;5033290;28;20048;-68
2021/09/29 02:37:56;;;;;;;12.68;4.70;;;11.40;99.90;;;;;;5049607;28;20479;-68
2021/09/29 02:40:22;;;;;;;10.55;3.90;;;11.50;99.90;;;;;;5030861;28;20498;-68
2021/09/29 02:42:49;;;;;;;9.82;4.18;;;11.40;99.90;;;;;;5028477;28;20079;-68
2021/09/29 02:45:15;;;;;;;9.02;4.18;;;11.40;99.90;;;;;;5030972;28;20041;-68
2021/09/29 02:47:40;;;;;;;8.20;3.78;;;11.40;99.90;;;;;;5032969;28;20038;-68
2021/09/29 02:50:07;;;;;;;7.75;4.28;;;11.40;99.90;;;;;;5048537;28;20051;-68
2021/09/29 02:52:32;;;;;;;15.25;4.72;;;11.40;99.90;;;;;;5048978;28;20474;-68
2021/09/29 02:54:58;;;;;;;10.05;3.88;;;11.40;99.90;;;;;;5031707;28;20133;-68
2021/09/29 02:57:24;;;;;;;9.35;3.85;;;11.50;99.90;;;;;;5029686;28;20056;-68
2021/09/29 02:59:49;;;;;;;10.00;4.15;;;11.50;99.90;;;;;;5033399;28;20127;-68
2021/09/29 03:02:15;;;;;;;6.38;3.97;;;11.50;99.90;;;;;;5028671;28;20041;-68
2021/09/29 03:04:41;;;;;;;10.15;3.83;;;11.50;99.90;;;;;;5031189;28;20211;-68
2021/09/29 03:07:06;;;;;;;12.82;4.80;;;11.50;99.90;;;;;;5030338;28;20489;-68
2021/09/29 03:09:32;;;;;;;11.98;4.38;;;11.50;99.90;;;;;;5036519;28;20054;-68
2021/09/29 03:11:58;;;;;;;10.63;4.40;;;11.50;99.90;;;;;;5032356;28;20047;-68
2021/09/29 03:14:23;;;;;;;11.55;4.35;;;11.50;99.90;;;;;;5051279;28;20765;-68
2021/09/29 03:16:49;;;;;;;11.25;4.43;;;11.60;99.90;;;;;;5031589;28;20037;-68
2021/09/29 03:19:15;;;;;;;9.30;4.00;;;11.50;99.90;;;;;;5030344;28;20037;-68
2021/09/29 03:21:40;;;;;;;10.57;4.30;;;11.50;99.90;;;;;;5031693;28;20135;-68
2021/09/29 03:24:06;;;;;;;11.00;4.43;;;11.60;99.90;;;;;;5032830;28;20371;-68
2021/09/29 03:26:31;;;;;;;11.73;4.68;;;11.60;99.90;;;;;;5029378;28;20068;-68
2021/09/29 03:28:57;;;;;;;10.98;4.80;;;11.60;99.90;;;;;;5032986;28;20048;-68
2021/09/29 03:31:23;;;;;;;9.35;4.53;;;11.60;99.90;;;;;;5028767;28;20083;-68
2021/09/29 03:33:50;;;;;;;11.35;4.82;;;11.60;99.90;;;;;;5047620;28;20059;-68
2021/09/29 03:36:16;;;;;;;13.45;5.03;;;11.60;99.90;;;;;;5045161;28;20124;-68
2021/09/29 03:38:41;;;;;;;11.75;4.85;;;11.60;99.90;;;;;;5048248;28;20561;-68
2021/09/29 03:41:07;;;;;;;9.48;4.60;;;11.60;99.90;;;;;;5044958;28;20037;-68
2021/09/29 03:43:32;;;;;;;13.75;5.00;;;11.60;99.90;;;;;;5028783;28;20076;-68
2021/09/29 03:45:58;;;;;;;14.55;5.15;;;11.60;99.90;;;;;;5032831;28;20049;-68
2021/09/29 03:48:24;;;;;;;12.82;5.53;;;11.60;99.90;;;;;;5045141;28;20045;-68
2021/09/29 03:50:49;;;;;;;11.45;4.47;;;11.50;99.90;;;;;;5047219;28;20399;-68
2021/09/29 03:53:15;;;;;;;12.15;4.97;;;11.50;99.90;;;;;;5030473;28;20129;-68
2021/09/29 03:55:41;;;;;;;14.43;5.75;;;11.50;99.90;;;;;;5050150;28;20045;-68
2021/09/29 03:58:06;;;;;;;10.88;4.65;;;11.50;99.90;;;;;;5047246;28;20120;-68
2021/09/29 04:00:32;;;;;;;8.50;5.10;;;11.40;99.90;;;;;;5015279;28;20075;-68
2021/09/29 04:02:58;;;;;;;9.82;5.07;;;11.50;99.90;;;;;;5045941;28;20410;-68
2021/09/29 04:05:23;;;;;;;8.75;4.95;;;11.40;99.90;;;;;;5048085;28;20040;-68
2021/09/29 04:07:49;;;;;;;10.13;5.28;;;11.40;99.90;;;;;;5033176;28;20072;-68
2021/09/29 04:10:15;;;;;;;14.02;5.25;;;11.40;99.90;;;;;;5029275;28;20037;-68
2021/09/29 04:12:43;;;;;;;12.40;5.68;;;11.40;99.90;;;;;;5029734;28;20072;-68
2021/09/29 04:15:10;;;;;;;11.10;5.18;;;11.40;99.90;;;;;;5040744;28;20037;-68
2021/09/29 04:17:37;;;;;;;14.40;5.47;;;11.40;99.90;;;;;;5031288;28;20053;-68
2021/09/29 04:20:04;;;;;;;8.27;4.40;;;11.40;99.90;;;;;;5047669;28;20119;-68
2021/09/29 04:22:29;;;;;;;14.00;5.53;;;11.40;99.90;;;;;;5023567;28;20049;-68
2021/09/29 04:24:56;;;;;;;7.60;4.68;;;11.40;99.90;;;;;;5029016;28;20040;-68
2021/09/29 04:27:21;;;;;;;14.77;5.18;;;11.40;99.90;;;;;;5044488;28;20072;-68
2021/09/29 04:29:47;;;;;;;11.55;5.05;;;11.30;99.90;;;;;;5040877;28;20124;-68
2021/09/29 04:32:13;;;;;;;9.85;5.50;;;11.30;99.90;;;;;;5024427;28;20092;-68
2021/09/29 04:34:39;;;;;;;9.70;6.13;;;11.30;99.90;;;;;;5048339;28;20044;-68
2021/09/29 04:37:06;;;;;;;10.35;5.43;;;11.30;99.90;;;;;;5045583;28;20053;-68
2021/09/29 04:39:32;;;;;;;10.27;6.00;;;11.20;99.90;;;;;;5028682;28;20132;-68
2021/09/29 04:41:58;;;;;;;14.43;6.10;;;11.20;99.90;;;;;;5026273;28;20120;-68
2021/09/29 04:44:24;;;;;;;12.23;6.15;;;11.10;99.90;;;;;;5048137;28;20048;-68
2021/09/29 04:46:49;;;;;;;15.95;7.47;;;11.10;99.90;;;;;;5031411;28;20403;-68
2021/09/29 04:49:15;;;;;;;12.38;6.70;;;11.10;99.90;;;;;;5050639;28;20039;-68
2021/09/29 04:51:41;;;;;;;15.40;7.30;;;11.00;99.90;;;;;;5049733;28;20550;-68
2021/09/29 04:54:06;;;;;;;10.63;7.57;;;11.00;99.90;;;;;;5029483;28;20463;-68
2021/09/29 04:56:32;;;;;;;10.88;6.53;;;11.00;99.90;;;;;;5048084;28;20049;-68
2021/09/29 04:58:58;;;;;;;14.48;7.03;;;11.10;99.90;;;;;;5031355;28;20036;-68
2021/09/29 05:01:27;;;;;;;10.98;6.72;;;11.00;99.90;;;;;;5031002;28;20040;-67
2021/09/29 05:03:54;;;;;;;10.05;6.65;;;10.90;99.90;;;;;;5048058;28;20057;-67
2021/09/29 05:06:20;;;;;;;9.25;6.53;;;11.00;99.90;;;;;;5045914;28;20060;-67
2021/09/29 05:08:49;;;;;;;11.10;6.43;;;11.00;99.90;;;;;;5046329;28;20049;-67
2021/09/29 05:11:17;;;;;;;12.70;6.65;;;11.00;99.90;;;;;;5030465;28;20037;-67
2021/09/29 05:13:43;;;;;;;13.20;6.40;;;11.00;99.90;;;;;;5030841;28;20082;-68
2021/09/29 05:16:09;;;;;;;13.68;6.53;;;11.00;99.90;;;;;;5032190;28;20045;-68
2021/09/29 05:18:35;;;;;;;11.02;6.07;;;11.00;99.90;;;;;;5044707;28;20048;-68
2021/09/29 05:21:01;;;;;;;15.38;7.72;;;11.00;99.90;;;;;;5021086;28;20136;-68
2021/09/29 05:23:26;;;;;;;13.77;6.68;;;11.00;99.90;;;;;;5009078;28;20091;-68
2021/09/29 05:25:52;;;;;;;13.65;6.30;;;11.00;99.90;;;;;;5123206;22;20454;-69
2021/09/29 05:28:22;;;;;;;14.05;7.13;;;11.10;99.90;;;;;;5096376;28;20040;-68
2021/09/29 05:30:48;;;;;;;12.23;6.88;;;11.10;99.90;;;;;;5092705;28;20043;-68
2021/09/29 05:33:14;;;;;;;11.50;6.20;;;11.10;99.90;;;;;;5094553;28;20043;-68
2021/09/29 05:35:39;;;;;;;11.75;6.47;;;11.10;99.90;;;;;;5094747;28;20067;-68
2021/09/29 05:38:05;;;;;;;11.63;5.97;;;11.10;99.90;;;;;;5096057;28;20039;-68
2021/09/29 05:40:31;;;;;;;12.00;6.03;;;11.10;99.90;;;;;;5093178;28;20094;-68
2021/09/29 05:42:58;;;;;;;12.48;5.85;;;11.20;99.90;;;;;;5099042;28;20096;-68
2021/09/29 05:45:23;;;;;;;7.85;5.97;;;11.20;99.90;;;;;;5094761;28;20046;-68
2021/09/29 05:47:49;;;;;;;14.88;6.15;;;11.20;99.90;;;;;;5096125;28;20039;-68
2021/09/29 05:50:15;;;;;;;12.63;5.85;;;11.20;99.90;;;;;;5090834;28;20028;-68
2021/09/29 05:52:41;;;;;;;11.57;5.97;;;11.30;99.90;;;;;;5095290;28;20051;-68
2021/09/29 05:55:07;;;;;;;9.63;5.10;;;11.30;99.90;;;;;;5094431;28;20537;-68
2021/09/29 05:57:33;;;;;;;11.93;5.95;;;11.30;99.90;;;;;;5094395;28;20126;-67
2021/09/29 05:59:59;;;;;;;10.43;5.60;;;11.40;99.90;;;;;;5094026;28;20043;-68
2021/09/29 06:02:25;;;;;;;11.68;6.10;;;11.50;99.90;;;;;;5093659;28;20100;-68
2021/09/29 06:04:50;;;;;;;12.27;5.97;;;11.50;99.90;;;;;;5092717;28;20067;-68
2021/09/29 06:07:17;;;;;;;10.38;6.03;;;11.50;99.90;;;;;;5094945;28;20047;-68
2021/09/29 06:09:44;;;;;;;11.20;5.93;;;11.60;99.90;;;;;;5097282;28;20051;-68
2021/09/29 06:12:11;;;;;;;11.45;5.72;;;11.60;99.90;;;;;;5097720;28;20047;-68
2021/09/29 06:14:40;;;;;;;12.27;5.68;;;11.70;99.90;;;;;;5095578;28;20036;-68
2021/09/29 06:17:42;;;;;;;13.80;5.97;;;11.70;99.90;;;;;;5089653;28;20073;-68
2021/09/29 06:19:59;;;;;;;12.02;5.63;;;11.80;99.90;;;;;;5085976;28;20047;-68
2021/09/29 06:22:25;;;;;;;13.63;5.35;;;11.90;99.90;;;;;;5085899;28;20040;-68
2021/09/29 06:24:51;;;;;;;12.15;5.68;;;11.90;99.90;;;;;;5089717;28;20125;-68
2021/09/29 06:27:16;;;;;;;12.82;6.15;;;12.00;99.90;;;;;;5089074;28;20050;-68
2021/09/29 06:29:43;;;;;;;12.38;5.82;;;12.10;99.90;;;;;;5086230;28;20044;-68
2021/09/29 06:32:09;;;;;;;10.90;4.68;;;12.10;99.90;;;;;;5088157;28;20733;-68
2021/09/29 06:34:35;;;;;;;14.00;4.57;;;12.70;99.90;;;;;;5089162;28;20035;-68
2021/09/29 06:37:01;;;;;;;9.07;3.75;;;13.20;99.90;;;;;;5087685;28;20043;-68
2021/09/29 06:39:27;;;;;;;12.57;5.05;;;13.70;99.90;;;;;;5087023;28;20401;-68
2021/09/29 06:41:52;;;;;;;8.52;3.85;;;13.80;99.90;;;;;;5089116;28;20031;-68
2021/09/29 06:44:18;;;;;;;12.68;4.20;;;13.90;99.90;;;;;;5086990;28;20073;-68
2021/09/29 06:46:44;;;;;;;10.82;4.20;;;13.80;99.90;;;;;;5088338;28;20036;-68
2021/09/29 06:49:10;;;;;;;9.32;3.42;;;13.60;99.90;;;;;;5100694;27;20110;-68
2021/09/29 06:51:35;;;;;;;10.43;4.13;;;13.50;99.90;;;;;;5089207;28;20126;-69
2021/09/29 06:54:02;;;;;;;9.88;4.50;;;13.30;99.90;;;;;;5087220;28;20050;-68
2021/09/29 06:56:28;;;;;;;10.50;4.40;;;13.20;99.90;;;;;;5091741;28;20043;-68
2021/09/29 06:58:53;;;;;;;6.43;3.60;;;13.10;99.90;;;;;;5086499;28;20084;-68
2021/09/29 07:01:20;;;;;;;9.05;4.20;;;13.10;99.90;;;;;;5087146;28;20552;-68
2021/09/29 07:03:47;;;;;;;10.88;4.20;;;13.00;99.90;;;;;;5088518;28;20027;-69
2021/09/29 07:06:13;;;;;;;15.15;5.30;;;12.90;99.90;;;;;;5088653;28;20951;-69
2021/09/29 07:08:39;;;;;;;8.63;4.88;;;12.80;99.90;;;;;;5086854;28;20043;-69
2021/09/29 07:11:05;;;;;;;12.43;4.50;;;12.80;99.90;;;;;;5089615;28;20036;-68
2021/09/29 07:13:31;;;;;;;12.25;4.93;;;12.70;99.90;;;;;;5087949;28;20637;-68
2021/09/29 07:16:03;;;;;;;8.73;5.05;;;12.70;99.90;;;;;;5088497;27;20055;-69
2021/09/29 07:18:32;;;;;;;9.77;5.03;;;12.60;99.90;;;;;;5088602;27;20068;-69
2021/09/29 07:21:00;;;;;;;11.77;4.82;;;12.60;99.90;;;;;;5087517;27;20152;-69
2021/09/29 07:23:26;;;;;;;8.02;5.18;;;12.60;99.90;;;;;;5088528;27;20043;-68
2021/09/29 07:25:52;;;;;;;14.30;6.15;;;12.50;99.90;;;;;;5089198;27;20035;-69
2021/09/29 07:28:19;;;;;;;10.68;5.32;;;12.50;99.90;;;;;;5085477;28;20131;-69
2021/09/29 07:30:46;;;;;;;9.70;4.90;;;12.50;99.90;;;;;;5088323;28;20055;-68
2021/09/29 07:33:13;;;;;;;9.95;5.82;;;12.40;99.90;;;;;;5087518;28;20058;-68
2021/09/29 07:35:41;;;;;;;13.23;5.13;;;12.40;99.90;;;;;;5083987;28;20044;-69
2021/09/29 07:38:07;;;;;;;15.27;5.97;;;12.50;99.90;;;;;;5089262;28;20039;-69
2021/09/29 07:40:34;;;;;;;8.70;4.57;;;12.50;99.90;;;;;;5087055;28;20032;-69
2021/09/29 07:43:00;;;;;;;10.10;5.03;;;12.40;99.90;;;;;;5088536;28;20062;-68
2021/09/29 07:45:27;;;;;;;12.82;5.43;;;12.50;99.90;;;;;;5088375;28;20390;-69
2021/09/29 07:47:53;;;;;;;9.60;5.88;;;12.50;99.90;;;;;;5088826;28;20062;-69
2021/09/29 07:50:19;;;;;;;11.70;6.38;;;12.50;99.90;;;;;;5089711;28;20036;-68
2021/09/29 07:52:46;;;;;;;14.38;5.93;;;12.60;99.90;;;;;;5085896;28;20043;-68
2021/09/29 07:55:13;;;;;;;13.00;6.03;;;12.50;99.90;;;;;;5086557;28;20047;-69
2021/09/29 07:57:40;;;;;;;13.30;5.07;;;12.60;99.90;;;;;;5086122;28;20113;-69
2021/09/29 08:00:07;;;;;;;9.68;5.15;;;12.60;99.90;;;;;;5087520;28;20043;-69
2021/09/29 08:02:33;;;;;;;10.40;5.75;;;12.60;99.90;;;;;;5084450;28;20063;-69
2021/09/29 08:05:02;;;;;;;9.77;5.22;;;12.60;99.90;;;;;;5087174;28;20135;-69
2021/09/29 08:07:28;;;;;;;7.78;5.88;;;12.60;99.90;;;;;;5087013;28;20048;-69
2021/09/29 08:09:54;;;;;;;11.23;5.53;;;12.60;99.90;;;;;;5087339;28;20047;-69
2021/09/29 08:12:19;;;;;;;11.55;5.40;;;12.60;99.90;;;;;;5086222;28;20044;-68
2021/09/29 08:14:45;;;;;;;9.63;5.75;;;12.60;99.90;;;;;;5086946;28;20104;-69
2021/09/29 08:17:11;;;;;;;13.90;5.53;;;12.60;99.90;;;;;;5089643;28;20048;-69
2021/09/29 08:19:37;;;;;;;16.08;6.00;;;12.60;99.90;;;;;;5087930;28;20051;-69
2021/09/29 08:22:06;;;;;;;10.23;5.60;;;12.60;99.90;;;;;;5085765;28;20047;-68
2021/09/29 08:24:40;;;;;;;13.15;5.40;;;12.60;99.90;;;;;;5086122;28;20765;-69
2021/09/29 08:32:07;;;;;;;11.63;5.95;;;12.60;99.90;;;;;;5084947;28;20048;-69
2021/09/29 08:37:07;;;;;;;11.38;5.80;;;12.60;99.90;;;;;;5085803;28;22263;-68
2021/09/29 08:39:41;;;;;;;9.95;5.43;;;12.60;99.90;;;;;;5086045;28;20104;-69
2021/09/29 08:44:59;;;;;;;15.98;5.53;;;12.60;99.90;;;;;;5085756;28;20159;-69
2021/09/29 08:50:20;;;;;;;9.20;6.43;;;12.70;99.90;;;;;;5087254;28;20050;-69
2021/09/29 08:53:10;;;;;;;12.05;5.50;;;12.70;99.90;;;;;;5085686;28;20996;-69
2021/09/29 08:56:08;;;;;;;8.38;5.70;;;12.70;99.90;;;;;;5086728;28;20392;-69
2021/09/29 09:17:38;;;;;;;13.80;6.88;;;12.70;99.90;;;;;;5085022;28;20124;-68
2021/09/29 09:20:21;;;;;;;9.55;6.10;;;12.60;99.90;;;;;;5085783;28;20120;-69
2021/09/29 09:22:56;;;;;;;10.25;6.45;;;12.70;99.90;;;;;;5085775;28;20050;-69
2021/09/29 09:25:51;;;;;;;7.00;5.53;;;12.60;99.90;;;;;;5086540;28;22618;-68
2021/09/29 09:28:28;;;;;;;6.15;5.40;;;12.60;99.90;;;;;;5064159;28;20048;-68
2021/09/29 09:31:06;;;;;;;10.50;6.05;;;12.60;99.90;;;;;;5086352;28;20671;-69
2021/09/29 09:33:31;;;;;;;6.30;5.05;;;12.60;99.90;;;;;;5082443;28;20485;-69
2021/09/29 09:35:57;;;;;;;8.95;5.40;;;12.60;99.90;;;;;;5083316;28;20092;-68
2021/09/29 09:38:25;;;;;;;6.72;4.68;;;12.60;99.90;;;;;;5083950;28;20044;-68
2021/09/29 09:41:00;;;;;;;6.43;5.07;;;12.70;99.90;;;;;;5083980;28;20066;-68
2021/09/29 09:43:30;;;;;;;6.57;4.97;;;12.70;99.90;;;;;;5085589;28;20136;-68
2021/09/29 09:45:58;;;;;;;4.10;3.70;;;12.60;99.90;;;;;;5085753;28;20100;-68
2021/09/29 09:48:29;;;;;;;5.22;3.30;;;12.70;99.90;;;;;;5083188;28;20036;-69
2021/09/29 09:51:04;;;;;;;5.47;3.80;;;12.70;99.90;;;;;;5085126;28;20702;-69
2021/09/29 09:53:31;;;;;;;5.10;3.28;;;12.70;99.90;;;;;;5084886;28;20130;-68
2021/09/29 09:55:57;;;;;;;4.43;3.28;;;12.70;99.90;;;;;;5084701;28;20093;-68
2021/09/29 09:58:23;;;;;;;4.30;3.90;;;12.70;99.90;;;;;;5084152;28;20430;-68
2021/09/29 10:00:58;;;;;;;3.50;3.20;;;12.70;99.90;;;;;;5086563;28;20145;-68
2021/09/29 10:03:27;;;;;;;5.03;3.30;;;12.70;99.90;;;;;;5086283;28;20039;-68
2021/09/29 10:05:54;;;;;;;4.72;3.28;;;12.80;99.90;;;;;;5085653;28;20032;-68
2021/09/29 10:08:26;;;;;;;4.38;3.72;;;12.70;99.90;;;;;;5082103;28;20063;-68
2021/09/29 10:27:58;;;;;;;6.38;3.60;;;12.90;99.90;;;;;;5082361;28;20051;-68
2021/09/29 10:30:40;;;;;;;6.15;3.72;;;12.90;99.90;;;;;;5082464;28;20081;-68
2021/09/29 10:33:23;;;;;;;3.47;2.83;;;12.90;99.90;;;;;;5085140;28;20056;-69
2021/09/29 10:41:02;;;;;;;2.80;1.73;;;13.00;99.90;;;;;;5086356;28;20143;-68
2021/09/29 10:47:32;;;;;;;5.25;1.85;;;13.00;99.90;;;;;;5083256;28;20129;-68
2021/09/29 10:49:18;;;;;;;4.68;2.58;;;13.00;99.90;;;;;;5074409;28;20051;-68
2021/09/29 11:31:25;;;;;;;3.58;3.28;;;13.30;99.90;;;;;;5087984;28;20055;-68
2021/09/29 11:33:38;;;;;;;7.88;4.45;;;13.20;99.90;;;;;;5077595;28;20059;-68
2021/09/29 11:49:53;;;;;;;4.07;1.80;;;13.20;99.90;;;;;;5087173;28;20084;-69
2021/09/29 12:11:52;;;;;;;2.10;0.50;;;12.90;99.90;;;;;;5087472;28;20047;-68
2021/09/29 12:14:37;;;;;;;1.27;0.20;;;12.80;99.90;;;;;;5086858;28;20054;-68
2021/09/29 12:17:03;;;;;;;0.95;0.10;;;12.70;99.90;;;;;;5071713;28;20088;-68
2021/09/29 12:19:35;;;;;;;0.75;0.10;;;12.60;99.90;;;;;;5086960;28;20046;-68
2021/09/29 12:22:05;;;;;;;2.13;0.10;;;12.50;99.90;;;;;;5085425;28;21786;-68
2021/09/29 12:24:38;;;;;;;2.45;0.10;;;12.40;99.90;;;;;;5088042;28;20446;-68
2021/09/29 12:27:05;;;;;;;1.05;0.10;;;12.40;99.90;;;;;;5086816;28;20150;-68
2021/09/29 12:29:53;;;;;;;2.70;0.20;;;12.30;99.90;;;;;;5072229;28;20039;-68
2021/09/29 12:37:59;;;;;;;4.07;0.20;;;12.30;99.90;;;;;;5086140;28;20130;-68
2021/09/29 12:40:31;;;;;;;2.03;0.28;;;12.20;99.90;;;;;;5084787;28;20055;-68
2021/09/29 12:43:03;;;;;;;3.80;0.52;;;12.30;99.90;;;;;;5086545;28;20405;-68
2021/09/29 12:45:36;;;;;;;2.80;0.30;;;12.20;99.90;;;;;;5084621;28;20036;-68
2021/09/29 12:48:05;;;;;;;2.33;0.20;;;12.20;99.90;;;;;;5086000;28;20176;-68
2021/09/29 12:50:49;;;;;;;3.55;0.20;;;12.20;99.90;;;;;;5085856;28;20093;-68
2021/09/29 12:55:58;;;;;;;2.45;0.20;;;12.20;99.90;;;;;;5085374;28;20664;-69
2021/09/29 12:58:24;;;;;;;2.67;0.20;;;12.20;99.90;;;;;;5087646;28;20054;-68
2021/09/29 13:00:50;;;;;;;0.70;0.10;;;12.20;99.90;;;;;;5070442;28;20060;-68
2021/09/29 13:03:16;;;;;;;2.40;0.20;;;12.20;99.90;;;;;;5085413;28;20077;-68
2021/09/29 13:05:42;;;;;;;0.60;0.10;;;12.20;99.90;;;;;;5084455;28;20044;-68
2021/09/29 13:08:08;;;;;;;1.52;0.20;;;12.20;99.90;;;;;;5084822;28;20051;-68
2021/09/29 13:10:35;;;;;;;1.17;0.10;;;12.20;99.90;;;;;;5084224;28;20102;-68
2021/09/29 13:13:01;;;;;;;1.05;0.10;;;12.20;99.90;;;;;;5082943;28;20043;-68
2021/09/29 13:15:27;;;;;;;1.50;0.10;;;12.20;99.90;;;;;;5082372;28;20052;-68
2021/09/29 13:17:55;;;;;;;4.38;0.20;;;12.20;99.90;;;;;;5086905;28;20035;-68
2021/09/29 13:20:24;;;;;;;3.38;0.35;;;12.20;99.90;;;;;;5084794;28;20207;-68
2021/09/29 13:22:55;;;;;;;2.25;0.20;;;12.20;99.90;;;;;;5086808;28;20407;-69
2021/09/29 13:36:34;;;;;;;3.08;0.30;;;12.10;99.90;;;;;;5090004;28;20040;-68
2021/09/29 13:39:02;;;;;;;1.75;0.20;;;12.00;99.90;;;;;;5089130;28;20090;-68
2021/09/29 13:41:28;;;;;;;3.00;0.20;;;12.10;99.90;;;;;;5085149;28;20090;-68
2021/09/29 13:43:53;;;;;;;0.60;0.20;;;12.00;99.90;;;;;;5088017;28;20043;-68
2021/09/29 13:46:19;;;;;;;1.15;0.13;;;12.00;99.90;;;;;;5086963;28;20201;-68
2021/09/29 13:48:45;;;;;;;1.35;0.20;;;12.00;99.90;;;;;;5087199;28;20051;-68
2021/09/29 13:51:10;;;;;;;2.33;0.20;;;12.00;99.90;;;;;;5094381;28;20474;-69
2021/09/29 13:53:36;;;;;;;0.90;0.10;;;12.00;99.90;;;;;;5086179;28;20035;-68
2021/09/29 13:56:05;;;;;;;1.75;0.40;;;12.10;99.90;;;;;;5089196;28;20048;-68
2021/09/29 13:58:43;;;;;;;2.22;0.20;;;12.10;99.90;;;;;;5086832;28;20762;-68
2021/09/29 14:01:34;;;;;;;2.60;0.10;;;12.20;99.90;;;;;;5088126;28;20048;-68
2021/09/29 14:28:44;;;;;;;1.83;0.30;;;12.10;99.90;;;;;;5088430;28;20043;-68
2021/09/29 14:31:15;;;;;;;0.85;0.13;;;12.10;99.90;;;;;;5090839;27;20081;-68
2021/09/29 14:33:46;;;;;;;3.47;0.35;;;12.20;99.90;;;;;;5090196;28;20052;-69
2021/09/29 14:36:15;;;;;;;1.85;0.30;;;12.20;99.90;;;;;;5092405;28;20035;-68
2021/09/29 14:38:41;;;;;;;3.63;0.30;;;12.30;99.90;;;;;;5089491;28;20086;-68
2021/09/29 14:41:07;;;;;;;2.72;0.30;;;12.30;99.90;;;;;;5089927;28;20048;-68
2021/09/29 14:43:33;;;;;;;2.60;0.60;;;12.40;99.90;;;;;;5093141;28;20442;-68
2021/09/29 14:45:58;;;;;;;1.38;0.77;;;12.40;99.90;;;;;;5091907;28;20051;-68
2021/09/29 14:48:24;;;;;;;1.05;0.40;;;12.40;99.90;;;;;;5090315;28;20032;-68
2021/09/29 14:50:50;;;;;;;2.75;0.77;;;12.50;99.90;;;;;;5093025;28;20040;-68
2021/09/29 14:53:16;;;;;;;2.72;0.50;;;12.50;99.90;;;;;;5090997;28;20099;-69
2021/09/29 14:55:42;;;;;;;2.92;0.77;;;12.40;99.90;;;;;;5091253;28;20043;-69
2021/09/29 14:58:08;;;;;;;2.63;0.40;;;12.40;99.90;;;;;;5090299;28;20039;-68
2021/09/29 15:00:34;;;;;;;1.20;0.30;;;12.40;99.90;;;;;;5089737;28;20134;-68
2021/09/29 15:03:00;;;;;;;0.95;0.17;;;12.40;99.90;;;;;;5089740;28;20044;-68
2021/09/29 15:05:27;;;;;;;1.58;0.20;;;12.30;99.90;;;;;;5090642;28;20032;-68
2021/09/29 15:07:53;;;;;;;1.58;0.10;;;12.30;99.90;;;;;;5090522;28;20032;-68
2021/09/29 15:10:19;;;;;;;3.42;0.13;;;12.30;99.90;;;;;;5090187;28;20039;-68
2021/09/29 15:12:45;;;;;;;4.03;0.20;;;12.30;99.90;;;;;;5091525;28;20028;-69
2021/09/29 15:17:45;;;;;;;4.10;0.40;;;12.30;99.90;;;;;;5099723;28;20093;-68
2021/09/29 15:22:49;;;;;;;4.47;0.20;;;12.30;99.90;;;;;;5101299;27;20100;-68
2021/09/29 15:49:30;;;;;;;0.73;0.13;;;11.60;99.90;;;;;;5100608;28;20043;-69
2021/09/29 15:52:07;;;;;;;2.20;0.20;;;11.60;99.90;;;;;;5100071;28;20509;-69
2021/09/29 15:57:26;;;;;;;4.15;0.30;;;11.50;99.90;;;;;;5100551;28;20060;-68
2021/09/29 16:02:50;;;;;;;4.70;0.50;;;11.40;99.90;;;;;;5096846;28;20043;-68
2021/09/29 16:18:54;;;;;;;4.88;0.30;;;11.30;99.90;;;;;;5096734;28;20063;-68
2021/09/29 16:32:16;;;;;;;3.22;0.30;;;11.30;99.90;;;;;;5098756;28;20131;-68
2021/09/29 16:34:59;;;;;;;6.25;0.35;;;11.30;99.90;;;;;;5095762;27;20043;-68
2021/09/29 16:37:26;;;;;;;3.95;0.35;;;11.30;99.90;;;;;;5097302;27;20150;-68